UKV1124 EIDW-EGCC
Flight info
| Callsign | UKV1124 |
|---|---|
| Flight time | N/A |
| Altitude | 23000 |
| Route | BOFUM3J BOFUM Q37 MALUD |
| Aircraft | A320/M-SDE3FGIKRWXY/S |
Departure
| Time | 2026-05-01 09:10 |
|---|---|
| Airport | Dublin Airport (EIDW) |
Arrival
| Time | N/A |
|---|---|
| Airport | Manchester Airport (EGCC) |
| Time | Latitude | Longitude | Altitude | Speed | Heading |
|---|---|---|---|---|---|
| 2026-05-01 08:54 | 53.42658 | -6.24695 | 211 ft | 0 kts | 147° |
| 2026-05-01 09:01 | 53.42668 | -6.24706 | 219 ft | 4 kts | 147° |
| 2026-05-01 09:01 | 53.42689 | -6.24730 | 214 ft | 1 kts | 147° |
| 2026-05-01 09:01 | 53.42707 | -6.24745 | 215 ft | 4 kts | 188° |
| 2026-05-01 09:01 | 53.42720 | -6.24726 | 211 ft | 4 kts | 247° |
| 2026-05-01 09:02 | 53.42722 | -6.24717 | 211 ft | 0 kts | 247° |
| 2026-05-01 09:04 | 53.42722 | -6.24718 | 211 ft | 1 kts | 247° |
| 2026-05-01 09:04 | 53.42719 | -6.24727 | 211 ft | 1 kts | 243° |
| 2026-05-01 09:04 | 53.42712 | -6.24749 | 211 ft | 6 kts | 240° |
| 2026-05-01 09:04 | 53.42691 | -6.24799 | 211 ft | 4 kts | 233° |
| 2026-05-01 09:05 | 53.42676 | -6.24834 | 211 ft | 3 kts | 235° |
| 2026-05-01 09:05 | 53.42631 | -6.24873 | 211 ft | 10 kts | 155° |
| 2026-05-01 09:05 | 53.42570 | -6.24879 | 218 ft | 10 kts | 217° |
| 2026-05-01 09:05 | 53.42554 | -6.24978 | 215 ft | 8 kts | 292° |
| 2026-05-01 09:06 | 53.42603 | -6.25036 | 214 ft | 9 kts | 336° |
| 2026-05-01 09:06 | 53.42687 | -6.25097 | 214 ft | 19 kts | 336° |
| 2026-05-01 09:06 | 53.42816 | -6.25255 | 211 ft | 28 kts | 326° |
| 2026-05-01 09:06 | 53.43005 | -6.25400 | 215 ft | 31 kts | 336° |
| 2026-05-01 09:07 | 53.43209 | -6.25544 | 211 ft | 33 kts | 337° |
| 2026-05-01 09:07 | 53.43403 | -6.25680 | 215 ft | 6 kts | 356° |
| 2026-05-01 09:07 | 53.43411 | -6.25628 | 212 ft | 6 kts | 88° |
| 2026-05-01 09:07 | 53.43407 | -6.25522 | 211 ft | 12 kts | 98° |
| 2026-05-01 09:08 | 53.43394 | -6.25359 | 211 ft | 16 kts | 97° |
| 2026-05-01 09:08 | 53.43385 | -6.25138 | 211 ft | 21 kts | 94° |
| 2026-05-01 09:08 | 53.43371 | -6.24878 | 214 ft | 25 kts | 95° |
| 2026-05-01 09:08 | 53.43361 | -6.24603 | 218 ft | 9 kts | 61° |
| 2026-05-01 09:09 | 53.43461 | -6.24550 | 213 ft | 22 kts | 5° |
| 2026-05-01 09:09 | 53.43528 | -6.24644 | 214 ft | 11 kts | 274° |
| 2026-05-01 09:09 | 53.43533 | -6.24764 | 217 ft | 10 kts | 274° |
| 2026-05-01 09:09 | 53.43548 | -6.25065 | 212 ft | 60 kts | 274° |
| 2026-05-01 09:10 | 53.43610 | -6.26194 | 211 ft | 128 kts | 276° |
| 2026-05-01 09:10 | 53.43697 | -6.27766 | 355 ft | 163 kts | 283° |
| 2026-05-01 09:10 | 53.43994 | -6.29707 | 1218 ft | 151 kts | 283° |
| 2026-05-01 09:10 | 53.44612 | -6.31186 | 1818 ft | 164 kts | 314° |
| 2026-05-01 09:11 | 53.45482 | -6.32603 | 2237 ft | 186 kts | 307° |
| 2026-05-01 09:11 | 53.46429 | -6.34273 | 2672 ft | 212 kts | 323° |
| 2026-05-01 09:11 | 53.47868 | -6.35141 | 3271 ft | 230 kts | 357° |
| 2026-05-01 09:11 | 53.49491 | -6.35090 | 4050 ft | 236 kts | 2° |
| 2026-05-01 09:12 | 53.51108 | -6.34596 | 4869 ft | 240 kts | 30° |
| 2026-05-01 09:12 | 53.52310 | -6.32705 | 5540 ft | 244 kts | 66° |
| 2026-05-01 09:12 | 53.52670 | -6.30278 | 5909 ft | 254 kts | 95° |
| 2026-05-01 09:12 | 53.52620 | -6.27838 | 6358 ft | 267 kts | 97° |
| 2026-05-01 09:13 | 53.52540 | -6.24658 | 7201 ft | 274 kts | 97° |
| 2026-05-01 09:13 | 53.52466 | -6.21427 | 8108 ft | 278 kts | 97° |
| 2026-05-01 09:13 | 53.52401 | -6.18212 | 9005 ft | 282 kts | 97° |
| 2026-05-01 09:13 | 53.52342 | -6.14896 | 9925 ft | 286 kts | 97° |
| 2026-05-01 09:14 | 53.52281 | -6.11487 | 10490 ft | 303 kts | 97° |
| 2026-05-01 09:14 | 53.52193 | -6.07816 | 10785 ft | 325 kts | 101° |
| 2026-05-01 09:14 | 53.51739 | -6.04054 | 11346 ft | 332 kts | 108° |
| 2026-05-01 09:14 | 53.51196 | -6.00253 | 12112 ft | 337 kts | 108° |
| 2026-05-01 09:15 | 53.50644 | -5.96404 | 12923 ft | 341 kts | 108° |
| 2026-05-01 09:15 | 53.50083 | -5.92515 | 13708 ft | 344 kts | 108° |
| 2026-05-01 09:15 | 53.49518 | -5.88583 | 14419 ft | 349 kts | 107° |
| 2026-05-01 09:15 | 53.49219 | -5.84553 | 15075 ft | 358 kts | 95° |
| 2026-05-01 09:16 | 53.49434 | -5.80333 | 15746 ft | 368 kts | 83° |
| 2026-05-01 09:16 | 53.50034 | -5.76116 | 16432 ft | 373 kts | 81° |
| 2026-05-01 09:16 | 53.50650 | -5.71860 | 17114 ft | 377 kts | 81° |
| 2026-05-01 09:17 | 53.51880 | -5.63194 | 18427 ft | 385 kts | 82° |
| 2026-05-01 09:17 | 53.52494 | -5.58788 | 18999 ft | 389 kts | 82° |
| 2026-05-01 09:17 | 53.53590 | -5.49841 | 20131 ft | 390 kts | 90° |
| 2026-05-01 09:18 | 53.53628 | -5.45292 | 20622 ft | 390 kts | 98° |
| 2026-05-01 09:18 | 53.53391 | -5.36167 | 21695 ft | 396 kts | 98° |
| 2026-05-01 09:19 | 53.53148 | -5.26868 | 22758 ft | 401 kts | 98° |
| 2026-05-01 09:19 | 53.53023 | -5.22160 | 23088 ft | 404 kts | 98° |
| 2026-05-01 09:19 | 53.52901 | -5.17433 | 23129 ft | 407 kts | 97° |
| 2026-05-01 09:20 | 53.52638 | -5.07893 | 23157 ft | 409 kts | 98° |
| 2026-05-01 09:20 | 53.52341 | -4.98403 | 23157 ft | 409 kts | 98° |
| 2026-05-01 09:21 | 53.52017 | -4.88863 | 23157 ft | 409 kts | 98° |
| 2026-05-01 09:21 | 53.51856 | -4.84090 | 23157 ft | 409 kts | 98° |
| 2026-05-01 09:21 | 53.51543 | -4.74547 | 23148 ft | 409 kts | 98° |
| 2026-05-01 09:22 | 53.51224 | -4.65006 | 23119 ft | 409 kts | 98° |
| 2026-05-01 09:22 | 53.50900 | -4.55533 | 23126 ft | 409 kts | 98° |
| 2026-05-01 09:23 | 53.50732 | -4.50766 | 23126 ft | 409 kts | 98° |
| 2026-05-01 09:23 | 53.50385 | -4.41226 | 23131 ft | 409 kts | 98° |
| 2026-05-01 09:24 | 53.50033 | -4.31695 | 23135 ft | 409 kts | 98° |
| 2026-05-01 09:24 | 53.49856 | -4.26939 | 23137 ft | 409 kts | 98° |
| 2026-05-01 09:24 | 53.49492 | -4.17397 | 23142 ft | 409 kts | 98° |
| 2026-05-01 09:25 | 53.49128 | -4.07994 | 22653 ft | 402 kts | 98° |
| 2026-05-01 09:25 | 53.48760 | -3.98777 | 21672 ft | 389 kts | 99° |
| 2026-05-01 09:26 | 53.48282 | -3.94377 | 21195 ft | 378 kts | 110° |
| 2026-05-01 09:26 | 53.46596 | -3.86128 | 20263 ft | 368 kts | 113° |
| 2026-05-01 09:26 | 53.45762 | -3.82115 | 19799 ft | 365 kts | 113° |
| 2026-05-01 09:27 | 53.44114 | -3.74173 | 18854 ft | 361 kts | 113° |
| 2026-05-01 09:27 | 53.43289 | -3.70211 | 18350 ft | 360 kts | 113° |
| 2026-05-01 09:27 | 53.42464 | -3.66262 | 17824 ft | 358 kts | 113° |
| 2026-05-01 09:28 | 53.41653 | -3.62275 | 17305 ft | 359 kts | 109° |
| 2026-05-01 09:28 | 53.41206 | -3.58176 | 16756 ft | 366 kts | 98° |
| 2026-05-01 09:28 | 53.41027 | -3.53895 | 16145 ft | 371 kts | 98° |
| 2026-05-01 09:28 | 53.40845 | -3.49582 | 15536 ft | 371 kts | 98° |
| 2026-05-01 09:29 | 53.40468 | -3.40982 | 14315 ft | 372 kts | 98° |
| 2026-05-01 09:29 | 53.40273 | -3.36635 | 13663 ft | 372 kts | 98° |
| 2026-05-01 09:30 | 53.39884 | -3.28099 | 12628 ft | 363 kts | 98° |
| 2026-05-01 09:30 | 53.39691 | -3.23963 | 12496 ft | 348 kts | 98° |
| 2026-05-01 09:30 | 53.39390 | -3.16197 | 12241 ft | 324 kts | 92° |
| 2026-05-01 09:31 | 53.39759 | -3.12521 | 12115 ft | 319 kts | 76° |
| 2026-05-01 09:31 | 53.40669 | -3.09201 | 11952 ft | 316 kts | 63° |
| 2026-05-01 09:31 | 53.42914 | -3.02894 | 11207 ft | 312 kts | 64° |
| 2026-05-01 09:32 | 53.43995 | -2.99753 | 10858 ft | 310 kts | 64° |
| 2026-05-01 09:32 | 53.46276 | -2.93051 | 9019 ft | 338 kts | 64° |
| 2026-05-01 09:32 | 53.47381 | -2.89790 | 8107 ft | 352 kts | 63° |
| 2026-05-01 09:33 | 53.48573 | -2.86349 | 8088 ft | 333 kts | 63° |
| 2026-05-01 09:33 | 53.49709 | -2.83094 | 8091 ft | 314 kts | 63° |
| 2026-05-01 09:33 | 53.51824 | -2.76985 | 8089 ft | 285 kts | 64° |
| 2026-05-01 09:34 | 53.52765 | -2.74242 | 8088 ft | 272 kts | 65° |
| 2026-05-01 09:34 | 53.53448 | -2.71381 | 8068 ft | 263 kts | 82° |
| 2026-05-01 09:34 | 53.53384 | -2.65464 | 7406 ft | 251 kts | 103° |
| 2026-05-01 09:35 | 53.53164 | -2.62563 | 7053 ft | 251 kts | 102° |
| 2026-05-01 09:35 | 53.52764 | -2.56751 | 6298 ft | 251 kts | 101° |
| 2026-05-01 09:35 | 53.52566 | -2.53834 | 5924 ft | 251 kts | 101° |
| 2026-05-01 09:36 | 53.52361 | -2.50838 | 5561 ft | 250 kts | 101° |
| 2026-05-01 09:36 | 53.52168 | -2.48030 | 5253 ft | 249 kts | 101° |
| 2026-05-01 09:36 | 53.51967 | -2.45155 | 4947 ft | 246 kts | 101° |
| 2026-05-01 09:36 | 53.51767 | -2.42345 | 4748 ft | 237 kts | 101° |
| 2026-05-01 09:37 | 53.51563 | -2.39518 | 4473 ft | 234 kts | 101° |
| 2026-05-01 09:37 | 53.51178 | -2.34246 | 4029 ft | 229 kts | 101° |
| 2026-05-01 09:37 | 53.50984 | -2.31581 | 4005 ft | 229 kts | 101° |
| 2026-05-01 09:38 | 53.50596 | -2.26290 | 3988 ft | 226 kts | 101° |
| 2026-05-01 09:38 | 53.50409 | -2.23701 | 3864 ft | 217 kts | 101° |
| 2026-05-01 09:38 | 53.50231 | -2.21228 | 3739 ft | 209 kts | 101° |
| 2026-05-01 09:39 | 53.49883 | -2.16532 | 3502 ft | 194 kts | 101° |
| 2026-05-01 09:39 | 53.49720 | -2.14355 | 3487 ft | 189 kts | 101° |
| 2026-05-01 09:39 | 53.49556 | -2.12187 | 3447 ft | 186 kts | 101° |
| 2026-05-01 09:40 | 53.49394 | -2.10041 | 3292 ft | 184 kts | 101° |
| 2026-05-01 09:40 | 53.48454 | -2.06173 | 3057 ft | 177 kts | 146° |
| 2026-05-01 09:40 | 53.47386 | -2.05405 | 3011 ft | 173 kts | 173° |
| 2026-05-01 09:41 | 53.46090 | -2.05743 | 3053 ft | 176 kts | 205° |
| 2026-05-01 09:41 | 53.44471 | -2.08599 | 2852 ft | 178 kts | 228° |
| 2026-05-01 09:41 | 53.43694 | -2.10218 | 2646 ft | 166 kts | 226° |
| 2026-05-01 09:42 | 53.42997 | -2.11662 | 2429 ft | 163 kts | 227° |
| 2026-05-01 09:42 | 53.42447 | -2.12805 | 2213 ft | 159 kts | 229° |
| 2026-05-01 09:42 | 53.40881 | -2.16204 | 1734 ft | 160 kts | 226° |
| 2026-05-01 09:43 | 53.39448 | -2.19063 | 1322 ft | 160 kts | 226° |
| 2026-05-01 09:43 | 53.38801 | -2.20420 | 1112 ft | 160 kts | 232° |
| 2026-05-01 09:43 | 53.38609 | -2.21605 | 818 ft | 168 kts | 271° |
| 2026-05-01 09:44 | 53.38938 | -2.26028 | 1941 ft | 185 kts | 279° |
| 2026-05-01 09:44 | 53.39276 | -2.27983 | 2493 ft | 203 kts | 280° |
| 2026-05-01 09:44 | 53.39583 | -2.30396 | 2941 ft | 222 kts | 283° |
| 2026-05-01 09:45 | 53.40408 | -2.32607 | 3003 ft | 229 kts | 318° |
| 2026-05-01 09:45 | 53.43441 | -2.33336 | 3018 ft | 237 kts | 28° |
| 2026-05-01 09:45 | 53.44739 | -2.31600 | 3018 ft | 237 kts | 49° |
| 2026-05-01 09:46 | 53.45782 | -2.29558 | 3010 ft | 236 kts | 58° |
| 2026-05-01 09:46 | 53.46706 | -2.27285 | 3005 ft | 235 kts | 60° |
| 2026-05-01 09:46 | 53.47662 | -2.24837 | 3007 ft | 235 kts | 60° |
| 2026-05-01 09:46 | 53.48507 | -2.22665 | 3011 ft | 236 kts | 60° |
| 2026-05-01 09:47 | 53.49401 | -2.20350 | 3006 ft | 236 kts | 60° |
| 2026-05-01 09:47 | 53.50298 | -2.18047 | 3010 ft | 235 kts | 60° |
| 2026-05-01 09:47 | 53.51194 | -2.15743 | 3007 ft | 235 kts | 60° |
| 2026-05-01 09:47 | 53.51960 | -2.13386 | 3004 ft | 223 kts | 77° |
| 2026-05-01 09:48 | 53.52098 | -2.10924 | 3011 ft | 204 kts | 101° |
| 2026-05-01 09:48 | 53.51657 | -2.08769 | 3017 ft | 186 kts | 123° |
| 2026-05-01 09:48 | 53.50990 | -2.06951 | 3020 ft | 180 kts | 130° |
| 2026-05-01 09:48 | 53.50092 | -2.05553 | 3009 ft | 174 kts | 148° |
| 2026-05-01 09:49 | 53.49008 | -2.04751 | 3014 ft | 173 kts | 166° |
| 2026-05-01 09:49 | 53.47813 | -2.04579 | 3014 ft | 173 kts | 183° |
| 2026-05-01 09:49 | 53.46646 | -2.05076 | 3023 ft | 175 kts | 201° |
| 2026-05-01 09:49 | 53.45637 | -2.06211 | 3007 ft | 179 kts | 221° |
| 2026-05-01 09:50 | 53.44815 | -2.07841 | 2918 ft | 183 kts | 227° |
| 2026-05-01 09:50 | 53.44038 | -2.09476 | 2726 ft | 174 kts | 227° |
| 2026-05-01 09:50 | 53.43284 | -2.11053 | 2518 ft | 165 kts | 227° |
| 2026-05-01 09:50 | 53.42794 | -2.12096 | 2414 ft | 172 kts | 227° |
| 2026-05-01 09:51 | 53.41708 | -2.14448 | 2017 ft | 169 kts | 227° |
| 2026-05-01 09:51 | 53.41084 | -2.15696 | 1809 ft | 152 kts | 227° |
| 2026-05-01 09:51 | 53.40447 | -2.16992 | 1611 ft | 139 kts | 227° |
| 2026-05-01 09:51 | 53.39854 | -2.18213 | 1433 ft | 134 kts | 227° |
| 2026-05-01 09:52 | 53.39256 | -2.19446 | 1261 ft | 134 kts | 229° |
| 2026-05-01 09:52 | 53.38672 | -2.20657 | 1081 ft | 133 kts | 226° |
| 2026-05-01 09:52 | 53.38097 | -2.21848 | 916 ft | 131 kts | 228° |
| 2026-05-01 09:52 | 53.37425 | -2.23248 | 717 ft | 132 kts | 229° |
| 2026-05-01 09:53 | 53.36907 | -2.24350 | 548 ft | 133 kts | 234° |
| 2026-05-01 09:53 | 53.36331 | -2.25516 | 361 ft | 129 kts | 222° |
| 2026-05-01 09:53 | 53.35744 | -2.26701 | 298 ft | 117 kts | 215° |